createdAt,value
2023-04-19T00:02:06.530Z,10.77
2023-04-19T00:04:33.614Z,10.76
2023-04-19T00:07:00.106Z,10.71
2023-04-19T00:09:26.483Z,10.72
2023-04-19T00:11:52.967Z,10.68
2023-04-19T00:14:19.434Z,10.79
2023-04-19T00:16:45.958Z,10.66
2023-04-19T00:19:12.404Z,10.67
2023-04-19T00:21:38.730Z,10.76
2023-04-19T00:24:05.449Z,10.77
2023-04-19T00:26:31.790Z,10.77
2023-04-19T00:28:58.114Z,10.67
2023-04-19T00:31:24.689Z,10.66
2023-04-19T00:33:51.158Z,10.65
2023-04-19T00:36:18.034Z,10.69
2023-04-19T00:38:46.621Z,10.73
2023-04-19T00:41:12.979Z,10.66
2023-04-19T00:43:42.278Z,10.63
2023-04-19T00:46:08.864Z,10.73
2023-04-19T00:48:38.424Z,10.68
2023-04-19T00:51:05.175Z,10.65
2023-04-19T00:53:31.593Z,10.64
2023-04-19T00:56:00.447Z,10.64
2023-04-19T00:58:30.032Z,10.59
2023-04-19T01:00:56.843Z,10.60
2023-04-19T01:03:23.676Z,10.63
2023-04-19T01:05:50.923Z,10.59
2023-04-19T01:08:17.244Z,10.57
2023-04-19T01:10:44.962Z,10.58
2023-04-19T01:13:11.263Z,10.61
2023-04-19T01:15:37.728Z,10.64
2023-04-19T01:18:04.235Z,10.57
2023-04-19T01:20:30.614Z,10.59
2023-04-19T01:22:56.936Z,10.63
2023-04-19T01:25:23.283Z,10.55
2023-04-19T01:27:49.612Z,10.58
2023-04-19T01:30:16.159Z,10.56
2023-04-19T01:32:42.525Z,10.42
2023-04-19T01:35:11.163Z,10.47
2023-04-19T01:37:37.569Z,10.50
2023-04-19T01:40:07.516Z,10.43
2023-04-19T01:42:33.870Z,10.35
2023-04-19T01:45:00.616Z,10.28
2023-04-19T01:47:27.124Z,10.28
2023-04-19T01:49:53.614Z,10.37
2023-04-19T01:52:20.274Z,10.47
2023-04-19T01:54:47.890Z,10.42
2023-04-19T01:57:16.397Z,10.39
2023-04-19T01:59:42.746Z,10.39
2023-04-19T02:02:09.257Z,10.21
2023-04-19T02:04:35.816Z,10.21
2023-04-19T02:07:02.113Z,10.19
2023-04-19T02:09:28.980Z,10.35
2023-04-19T02:11:55.424Z,10.34
2023-04-19T02:14:22.020Z,10.24
2023-04-19T02:16:48.745Z,10.27
2023-04-19T02:19:15.366Z,10.20
2023-04-19T02:21:41.722Z,10.22
2023-04-19T02:24:08.099Z,10.10
2023-04-19T02:26:34.475Z,10.15
2023-04-19T02:29:00.787Z,10.11
2023-04-19T02:31:27.156Z,9.94
2023-04-19T02:33:53.525Z,9.88
2023-04-19T02:36:19.852Z,9.94
2023-04-19T02:38:46.150Z,9.80
2023-04-19T02:41:13.001Z,9.99
2023-04-19T02:43:39.339Z,9.89
2023-04-19T02:46:06.377Z,10.00
2023-04-19T02:48:32.879Z,9.88
2023-04-19T02:50:59.326Z,9.74
2023-04-19T02:53:26.996Z,9.66
2023-04-19T02:55:53.406Z,9.89
2023-04-19T02:58:20.222Z,9.87
2023-04-19T03:00:58.185Z,9.85
2023-04-19T03:03:24.592Z,9.69
2023-04-19T03:05:51.092Z,9.76
2023-04-19T03:08:17.873Z,9.71
2023-04-19T03:10:45.153Z,9.88
2023-04-19T03:13:11.672Z,9.92
2023-04-19T03:15:38.004Z,9.95
2023-04-19T03:18:04.825Z,9.97
2023-04-19T03:20:31.178Z,9.96
2023-04-19T03:22:57.755Z,9.96
2023-04-19T03:25:24.824Z,10.02
2023-04-19T03:27:59.227Z,10.10
2023-04-19T03:30:45.972Z,10.06
2023-04-19T03:33:12.358Z,10.00
2023-04-19T03:35:38.654Z,9.92
2023-04-19T03:38:10.220Z,9.88
2023-04-19T03:40:37.965Z,10.02
2023-04-19T03:43:05.396Z,9.91
2023-04-19T03:45:33.518Z,9.83
2023-04-19T03:48:02.622Z,10.06
2023-04-19T03:50:29.608Z,10.00
2023-04-19T03:52:56.653Z,10.01
2023-04-19T03:55:23.055Z,10.04
2023-04-19T03:57:50.291Z,10.10
2023-04-19T04:00:22.676Z,10.09
2023-04-19T04:02:55.513Z,10.01
2023-04-19T04:05:22.242Z,10.00
2023-04-19T04:07:48.655Z,10.00
2023-04-19T04:10:15.037Z,10.09
2023-04-19T04:12:42.949Z,10.23
2023-04-19T04:15:13.326Z,10.08
2023-04-19T04:17:45.959Z,10.07
2023-04-19T04:20:13.411Z,10.08
2023-04-19T04:22:45.927Z,10.15
2023-04-19T04:25:15.752Z,10.16
2023-04-19T04:27:43.980Z,10.18
2023-04-19T04:30:14.273Z,10.25
2023-04-19T04:32:41.011Z,10.24
2023-04-19T04:35:09.307Z,10.27
2023-04-19T04:37:42.211Z,10.19
2023-04-19T04:40:09.688Z,10.26
2023-04-19T04:42:37.518Z,10.33
2023-04-19T04:45:04.630Z,10.23
2023-04-19T04:47:34.035Z,10.15
2023-04-19T04:50:04.957Z,10.06
2023-04-19T04:52:31.959Z,10.02
2023-04-19T04:55:07.246Z,10.04
2023-04-19T04:57:36.583Z,10.16
2023-04-19T05:00:06.764Z,10.16
2023-04-19T05:02:40.457Z,10.18
2023-04-19T05:05:07.439Z,10.20
2023-04-19T05:07:33.785Z,10.25
2023-04-19T05:10:02.128Z,10.23
2023-04-19T05:12:35.125Z,10.28
2023-04-19T05:15:01.705Z,10.20
2023-04-19T05:17:28.497Z,10.24
2023-04-19T05:19:54.911Z,10.17
2023-04-19T05:22:21.425Z,10.17
2023-04-19T05:24:49.975Z,10.05
2023-04-19T05:27:17.188Z,10.22
2023-04-19T05:29:43.596Z,10.14
2023-04-19T05:32:10.051Z,10.22
2023-04-19T05:34:43.648Z,10.19
2023-04-19T05:37:13.496Z,10.26
2023-04-19T05:39:44.014Z,10.30
2023-04-19T05:42:10.940Z,10.22
2023-04-19T05:44:37.331Z,10.27
2023-04-19T05:47:04.081Z,10.28
2023-04-19T05:49:53.419Z,10.25
2023-04-19T05:52:27.191Z,10.32
2023-04-19T05:54:55.731Z,10.23
2023-04-19T05:57:22.049Z,10.25
2023-04-19T05:59:48.428Z,10.25
2023-04-19T06:02:18.536Z,10.26
2023-04-19T06:04:45.853Z,10.12
2023-04-19T06:07:22.328Z,10.30
2023-04-19T06:09:53.582Z,10.24
2023-04-19T06:12:20.429Z,10.33
2023-04-19T06:14:46.765Z,10.20
2023-04-19T06:17:14.207Z,10.30
2023-04-19T06:19:41.240Z,10.29
2023-04-19T06:22:07.672Z,10.38
2023-04-19T06:24:35.307Z,10.39
2023-04-19T06:27:02.177Z,10.37
2023-04-19T06:29:28.567Z,10.32
2023-04-19T06:31:55.270Z,10.39
2023-04-19T06:34:21.776Z,10.48
2023-04-19T06:36:48.109Z,10.56
2023-04-19T06:39:15.049Z,10.63
2023-04-19T06:41:41.370Z,10.71
2023-04-19T06:44:07.732Z,10.70
2023-04-19T06:46:34.038Z,10.71
2023-04-19T06:49:00.450Z,10.77
2023-04-19T06:51:26.826Z,10.69
2023-04-19T06:53:53.222Z,10.63
2023-04-19T06:56:39.661Z,10.72
2023-04-19T06:59:06.144Z,10.73
2023-04-19T07:01:32.473Z,10.69
2023-04-19T07:03:59.113Z,10.60
2023-04-19T07:06:26.999Z,10.70
2023-04-19T07:08:53.551Z,10.69
2023-04-19T07:11:21.146Z,10.66
2023-04-19T07:13:48.703Z,10.77
2023-04-19T07:16:15.160Z,10.81
2023-04-19T07:18:41.568Z,10.85
2023-04-19T07:21:07.841Z,10.79
2023-04-19T07:23:34.170Z,10.80
2023-04-19T07:26:00.576Z,10.82
2023-04-19T07:28:29.182Z,10.80
2023-04-19T07:30:55.592Z,10.84
2023-04-19T07:33:25.809Z,10.80
2023-04-19T07:35:54.596Z,10.85
2023-04-19T07:38:21.084Z,10.85
2023-04-19T07:40:47.451Z,10.71
2023-04-19T07:43:13.888Z,10.72
2023-04-19T07:45:40.587Z,10.79
2023-04-19T07:48:06.980Z,10.77
2023-04-19T07:50:33.349Z,10.86
2023-04-19T07:52:59.692Z,10.98
2023-04-19T07:55:26.025Z,10.97
2023-04-19T07:57:52.325Z,10.90
2023-04-19T08:00:21.397Z,11.01
2023-04-19T08:02:48.998Z,11.07
2023-04-19T08:05:20.004Z,11.15
2023-04-19T08:07:46.573Z,11.19
2023-04-19T08:10:13.290Z,11.30
2023-04-19T08:12:47.740Z,11.54
2023-04-19T08:17:56.778Z,11.67
2023-04-19T08:20:23.192Z,11.73
2023-04-19T08:22:49.500Z,11.78
2023-04-19T08:25:16.512Z,11.82
2023-04-19T08:27:42.913Z,11.98
2023-04-19T08:30:10.728Z,11.94
2023-04-19T08:32:37.334Z,11.95
2023-04-19T08:35:04.149Z,12.13
2023-04-19T08:37:30.554Z,12.10
2023-04-19T08:39:56.874Z,12.08
2023-04-19T08:42:35.484Z,12.05
2023-04-19T08:47:44.928Z,12.31
2023-04-19T08:50:28.862Z,12.53
2023-04-19T08:53:16.270Z,12.50
2023-04-19T08:56:06.693Z,12.19
2023-04-19T08:58:52.101Z,12.13
2023-04-19T09:01:33.800Z,12.26
2023-04-19T09:04:17.126Z,12.40
2023-04-19T09:06:48.917Z,12.56
2023-04-19T09:11:53.604Z,12.74
2023-04-19T09:14:22.421Z,12.93
2023-04-19T09:16:49.099Z,13.09
2023-04-19T09:19:24.388Z,13.30
2023-04-19T09:21:54.145Z,13.40
2023-04-19T09:25:04.436Z,13.43
2023-04-19T09:27:36.336Z,13.46
2023-04-19T09:30:04.520Z,13.49
2023-04-19T09:32:46.492Z,13.57
2023-04-19T09:35:12.964Z,13.64
2023-04-19T09:38:02.110Z,13.69
2023-04-19T09:40:28.295Z,13.98
2023-04-19T09:45:30.565Z,14.06
2023-04-19T09:48:03.084Z,14.08
2023-04-19T09:50:31.549Z,14.25
2023-04-19T09:52:58.932Z,14.39
2023-04-19T09:55:28.722Z,14.33
2023-04-19T09:57:56.767Z,14.32
2023-04-19T10:00:23.263Z,14.67
2023-04-19T10:02:55.471Z,14.93
2023-04-19T10:05:24.055Z,14.98
2023-04-19T10:07:53.726Z,14.96
2023-04-19T10:10:27.630Z,15.08
2023-04-19T10:13:20.609Z,15.20
2023-04-19T10:15:54.004Z,15.27
2023-04-19T10:18:22.789Z,15.30
2023-04-19T10:20:59.837Z,15.12
2023-04-19T10:23:26.913Z,15.24
2023-04-19T10:25:57.788Z,15.53
2023-04-19T10:28:24.377Z,15.65
2023-04-19T10:30:55.631Z,15.88
2023-04-19T10:33:27.778Z,15.98
2023-04-19T10:35:59.020Z,16.14
2023-04-19T10:38:47.801Z,16.11
2023-04-19T10:41:19.172Z,16.29
2023-04-19T10:43:47.872Z,16.07
2023-04-19T10:46:15.681Z,15.91
2023-04-19T10:49:02.186Z,15.94
2023-04-19T10:51:47.454Z,16.35
2023-04-19T10:54:31.117Z,16.70
2023-04-19T10:57:05.230Z,16.61
2023-04-19T10:59:33.854Z,16.70
2023-04-19T11:02:02.564Z,16.52
2023-04-19T11:04:31.888Z,16.57
2023-04-19T11:07:04.519Z,16.72
2023-04-19T11:09:34.803Z,16.20
2023-04-19T11:12:03.961Z,15.73
2023-04-19T11:14:32.922Z,15.57
2023-04-19T11:17:00.730Z,15.85
2023-04-19T11:19:27.197Z,16.47
2023-04-19T11:21:58.523Z,16.89
2023-04-19T11:24:25.286Z,16.96
2023-04-19T11:26:54.080Z,16.51
2023-04-19T11:29:21.857Z,16.59
2023-04-19T11:31:48.555Z,16.47
2023-04-19T11:34:15.332Z,16.37
2023-04-19T11:36:51.307Z,16.23
2023-04-19T11:39:18.433Z,16.73
2023-04-19T11:41:46.988Z,16.89
2023-04-19T11:44:15.417Z,17.23
2023-04-19T11:46:42.667Z,17.37
2023-04-19T11:49:09.326Z,17.30
2023-04-19T11:51:35.684Z,17.18
2023-04-19T11:54:02.207Z,17.07
2023-04-19T11:56:28.573Z,17.26
2023-04-19T11:58:57.533Z,17.48
2023-04-19T12:01:25.653Z,17.86
2023-04-19T12:03:57.506Z,17.73
2023-04-19T12:06:29.688Z,18.07
2023-04-19T12:08:57.092Z,17.96
2023-04-19T12:11:42.767Z,18.42
2023-04-19T12:14:10.578Z,18.40
2023-04-19T12:16:37.437Z,18.52
2023-04-19T12:19:19.399Z,18.42
2023-04-19T12:21:47.224Z,18.72
2023-04-19T12:24:17.002Z,18.66
2023-04-19T12:26:57.081Z,18.51
2023-04-19T12:29:23.462Z,18.59
2023-04-19T12:31:49.825Z,18.63
2023-04-19T12:34:16.136Z,19.10
2023-04-19T12:36:42.427Z,18.87
2023-04-19T12:39:09.040Z,18.72
2023-04-19T12:41:35.418Z,18.90
2023-04-19T12:44:01.733Z,19.14
2023-04-19T12:46:28.354Z,19.27
2023-04-19T12:48:54.671Z,19.22
2023-04-19T12:51:21.001Z,18.98
2023-04-19T12:53:52.205Z,18.84
2023-04-19T12:56:18.587Z,19.07
2023-04-19T12:58:45.165Z,19.31
2023-04-19T13:01:11.544Z,19.36
2023-04-19T13:03:38.116Z,19.40
2023-04-19T13:06:05.372Z,19.27
2023-04-19T13:08:44.053Z,19.32
2023-04-19T13:11:12.830Z,19.31
2023-04-19T13:13:39.150Z,18.83
2023-04-19T13:16:07.666Z,19.21
2023-04-19T13:18:34.016Z,19.41
2023-04-19T13:21:00.333Z,18.94
2023-04-19T13:23:26.672Z,19.05
2023-04-19T13:25:52.962Z,18.96
2023-04-19T13:28:19.273Z,19.08
2023-04-19T13:30:45.652Z,19.17
2023-04-19T13:33:11.991Z,19.16
2023-04-19T13:35:38.352Z,18.87
2023-04-19T13:38:04.703Z,18.87
2023-04-19T13:40:31.049Z,18.62
2023-04-19T13:42:57.344Z,18.84
2023-04-19T13:45:23.730Z,18.52
2023-04-19T13:47:50.036Z,18.51
2023-04-19T13:50:16.398Z,18.14
2023-04-19T13:52:42.751Z,18.52
2023-04-19T13:55:09.325Z,18.60
2023-04-19T13:57:35.712Z,18.71
2023-04-19T14:00:02.058Z,18.69
2023-04-19T14:02:33.691Z,18.58
2023-04-19T14:05:00.190Z,18.62
2023-04-19T14:07:26.541Z,18.66
2023-04-19T14:09:52.958Z,18.56
2023-04-19T14:12:19.356Z,18.52
2023-04-19T14:14:45.759Z,18.37
2023-04-19T14:17:12.056Z,18.17
2023-04-19T14:19:38.342Z,17.82
2023-04-19T14:22:04.714Z,17.58
2023-04-19T14:24:31.003Z,17.20
2023-04-19T14:29:29.749Z,17.05
2023-04-19T14:31:56.179Z,16.42
2023-04-19T14:34:22.557Z,16.43
2023-04-19T14:36:51.026Z,16.22
2023-04-19T14:39:18.116Z,16.09
2023-04-19T14:41:44.812Z,15.72
2023-04-19T14:44:11.091Z,15.59
2023-04-19T14:46:37.389Z,15.73
2023-04-19T14:49:05.795Z,15.55
2023-04-19T14:51:32.631Z,15.29
2023-04-19T14:53:59.219Z,15.21
2023-04-19T14:56:25.820Z,15.08
2023-04-19T14:58:53.173Z,14.95
2023-04-19T15:01:19.891Z,15.12
2023-04-19T15:03:46.638Z,15.11
2023-04-19T15:06:13.519Z,14.87
2023-04-19T15:08:41.086Z,14.96
2023-04-19T15:11:07.408Z,14.90
2023-04-19T15:13:35.356Z,14.90
2023-04-19T15:16:03.770Z,14.88
2023-04-19T15:18:30.280Z,14.95
2023-04-19T15:20:56.652Z,14.90
2023-04-19T15:23:24.115Z,14.95
2023-04-19T15:25:51.842Z,14.91
2023-04-19T15:28:18.371Z,14.80
2023-04-19T15:30:44.669Z,14.59
2023-04-19T15:33:11.102Z,14.52
2023-04-19T15:35:37.508Z,14.60
2023-04-19T15:38:03.827Z,14.43
2023-04-19T15:40:30.371Z,14.65
2023-04-19T15:42:56.821Z,14.66
2023-04-19T15:45:23.169Z,14.51
2023-04-19T15:47:49.507Z,14.28
2023-04-19T15:50:15.853Z,14.24
2023-04-19T15:52:42.211Z,14.25
2023-04-19T15:55:08.671Z,14.32
2023-04-19T15:57:35.015Z,14.19
2023-04-19T16:00:01.364Z,13.95
2023-04-19T16:02:27.846Z,14.07
2023-04-19T16:04:54.300Z,13.99
2023-04-19T16:07:20.994Z,13.90
2023-04-19T16:09:47.305Z,13.99
2023-04-19T16:12:13.586Z,13.88
2023-04-19T16:14:39.894Z,14.00
2023-04-19T16:17:06.214Z,13.84
2023-04-19T16:19:32.588Z,13.87
2023-04-19T16:22:01.940Z,13.86
2023-04-19T16:24:28.877Z,13.84
2023-04-19T16:26:55.160Z,13.67
2023-04-19T16:29:21.479Z,13.70
2023-04-19T16:31:50.409Z,13.66
2023-04-19T16:34:19.652Z,13.64
2023-04-19T16:36:45.937Z,13.66
2023-04-19T16:39:12.305Z,13.59
2023-04-19T16:41:38.784Z,13.60
2023-04-19T16:44:05.572Z,13.29
2023-04-19T16:46:32.080Z,13.32
2023-04-19T16:48:59.047Z,13.16
2023-04-19T16:51:25.394Z,13.27
2023-04-19T16:53:52.957Z,13.31
2023-04-19T16:56:19.383Z,13.24
2023-04-19T16:58:46.313Z,13.18
2023-04-19T17:01:13.539Z,13.09
2023-04-19T17:03:40.108Z,13.25
2023-04-19T17:06:06.891Z,13.17
2023-04-19T17:08:33.289Z,13.17
2023-04-19T17:10:59.649Z,13.13
2023-04-19T17:13:26.448Z,13.14
2023-04-19T17:15:52.843Z,13.15
2023-04-19T17:18:19.307Z,13.08
2023-04-19T17:20:45.615Z,12.99
2023-04-19T17:23:11.915Z,12.91
2023-04-19T17:25:38.189Z,12.91
2023-04-19T17:28:04.536Z,12.93
2023-04-19T17:30:30.885Z,12.72
2023-04-19T17:32:57.457Z,12.63
2023-04-19T17:35:25.779Z,12.68
2023-04-19T17:37:52.345Z,12.65
2023-04-19T17:40:18.768Z,12.54
2023-04-19T17:42:45.083Z,12.66
2023-04-19T17:45:11.748Z,12.69
2023-04-19T17:47:39.248Z,12.46
2023-04-19T17:50:07.863Z,12.43
2023-04-19T17:52:35.088Z,12.47
2023-04-19T17:55:02.481Z,12.31
2023-04-19T17:57:29.747Z,12.25
2023-04-19T17:59:56.079Z,12.25
2023-04-19T18:02:23.456Z,12.18
2023-04-19T18:04:50.131Z,12.20
2023-04-19T18:07:16.481Z,12.22
2023-04-19T18:09:42.823Z,12.12
2023-04-19T18:12:09.457Z,12.07
2023-04-19T18:14:35.938Z,12.08
2023-04-19T18:17:03.066Z,11.92
2023-04-19T18:19:29.439Z,11.93
2023-04-19T18:21:55.945Z,11.90
2023-04-19T18:24:22.282Z,12.03
2023-04-19T18:26:48.587Z,11.82
2023-04-19T18:29:16.035Z,11.88
2023-04-19T18:31:42.685Z,11.73
2023-04-19T18:34:11.240Z,11.69
2023-04-19T18:36:38.731Z,11.56
2023-04-19T18:39:05.208Z,11.54
2023-04-19T18:41:31.606Z,11.47
2023-04-19T18:46:27.199Z,11.34
2023-04-19T18:48:53.627Z,11.27
2023-04-19T18:51:20.080Z,11.26
2023-04-19T18:53:46.450Z,11.28
2023-04-19T18:56:12.826Z,11.13
2023-04-19T18:58:39.137Z,11.13
2023-04-19T19:01:05.650Z,11.22
2023-04-19T19:03:57.988Z,11.04
2023-04-19T19:06:18.501Z,11.10
2023-04-19T19:08:45.318Z,11.21
2023-04-19T19:13:41.005Z,10.91
2023-04-19T19:16:07.359Z,11.00
2023-04-19T19:18:34.831Z,10.85
2023-04-19T19:21:01.305Z,10.87
2023-04-19T19:23:35.432Z,10.91
2023-04-19T19:26:03.734Z,10.77
2023-04-19T19:28:30.047Z,10.67
2023-04-19T19:30:56.405Z,10.58
2023-04-19T19:33:24.025Z,10.42
2023-04-19T19:35:50.486Z,10.54
2023-04-19T19:38:16.817Z,10.47
2023-04-19T19:41:17.757Z,10.36
2023-04-19T19:43:29.541Z,10.23
2023-04-19T19:45:55.827Z,10.16
2023-04-19T19:48:22.281Z,10.13
2023-04-19T19:51:19.050Z,10.32
2023-04-19T19:53:34.947Z,10.03
2023-04-19T19:56:01.834Z,10.12
2023-04-19T19:58:48.283Z,10.03
2023-04-19T20:03:42.089Z,9.91
2023-04-19T20:08:43.799Z,9.68
2023-04-19T20:11:10.966Z,10.11
2023-04-19T20:13:37.279Z,9.75
2023-04-19T20:16:03.704Z,9.78
2023-04-19T20:18:30.149Z,9.35
2023-04-19T20:20:57.691Z,9.69
2023-04-19T20:23:24.089Z,9.50
2023-04-19T20:25:51.967Z,9.17
2023-04-19T20:28:18.586Z,9.05
2023-04-19T20:30:44.933Z,8.94
2023-04-19T20:33:11.329Z,9.08
2023-04-19T20:35:37.672Z,9.10
2023-04-19T20:38:04.090Z,8.93
2023-04-19T20:40:31.761Z,9.03
2023-04-19T20:42:58.374Z,8.94
2023-04-19T20:45:25.585Z,8.87
2023-04-19T20:47:52.085Z,9.00
2023-04-19T20:50:18.551Z,8.66
2023-04-19T20:52:45.076Z,8.68
2023-04-19T20:55:11.388Z,8.79
2023-04-19T20:57:37.738Z,8.66
2023-04-19T21:00:07.938Z,8.83
2023-04-19T21:02:34.278Z,8.66
2023-04-19T21:05:00.741Z,8.48
2023-04-19T21:07:27.040Z,8.73
2023-04-19T21:09:53.365Z,8.77
2023-04-19T21:12:19.719Z,8.68
2023-04-19T21:14:49.264Z,8.35
2023-04-19T21:17:16.242Z,8.06
2023-04-19T21:19:42.614Z,8.14
2023-04-19T21:22:08.902Z,7.85
2023-04-19T21:24:35.217Z,8.34
2023-04-19T21:27:01.580Z,7.93
2023-04-19T21:29:27.975Z,7.91
2023-04-19T21:31:54.386Z,7.79
2023-04-19T21:34:20.836Z,7.76
2023-04-19T21:36:47.123Z,7.75
2023-04-19T21:39:13.448Z,7.76
2023-04-19T21:41:39.842Z,7.86
2023-04-19T21:44:06.578Z,7.67
2023-04-19T21:46:33.329Z,7.53
2023-04-19T21:48:59.663Z,7.56
2023-04-19T21:51:26.178Z,7.66
2023-04-19T21:53:52.565Z,7.78
2023-04-19T21:56:18.954Z,7.65
2023-04-19T21:58:45.357Z,7.44
2023-04-19T22:01:11.777Z,7.75
2023-04-19T22:03:39.234Z,7.90
2023-04-19T22:06:06.462Z,7.52
2023-04-19T22:08:33.832Z,7.49
2023-04-19T22:11:01.082Z,7.42
2023-04-19T22:13:28.217Z,7.50
2023-04-19T22:15:56.903Z,7.35
2023-04-19T22:18:23.588Z,7.13
2023-04-19T22:20:50.739Z,7.32
2023-04-19T22:23:17.066Z,7.33
2023-04-19T22:25:43.440Z,7.28
2023-04-19T22:28:09.752Z,7.28
2023-04-19T22:30:36.067Z,6.98
2023-04-19T22:33:02.403Z,6.96
2023-04-19T22:35:28.717Z,7.21
2023-04-19T22:37:55.048Z,6.84
2023-04-19T22:40:21.436Z,6.65
2023-04-19T22:42:47.772Z,6.72
2023-04-19T22:45:14.136Z,6.90
2023-04-19T22:47:40.528Z,6.61
2023-04-19T22:50:08.609Z,6.78
2023-04-19T22:52:35.160Z,6.73
2023-04-19T22:55:01.737Z,6.73
2023-04-19T22:57:28.090Z,7.03
2023-04-19T22:59:54.381Z,6.56
2023-04-19T23:02:21.473Z,6.48
2023-04-19T23:04:48.932Z,6.24
2023-04-19T23:07:15.930Z,6.38
2023-04-19T23:09:42.218Z,6.63
2023-04-19T23:12:08.666Z,6.49
2023-04-19T23:14:35.503Z,6.68
2023-04-19T23:17:02.563Z,6.60
2023-04-19T23:19:30.266Z,6.55
2023-04-19T23:21:56.687Z,6.38
2023-04-19T23:24:23.041Z,6.55
2023-04-19T23:26:49.435Z,6.38
2023-04-19T23:29:16.085Z,6.40
2023-04-19T23:31:42.563Z,6.57
2023-04-19T23:34:09.030Z,6.08
2023-04-19T23:36:35.609Z,6.31
2023-04-19T23:39:01.895Z,6.27
2023-04-19T23:41:28.261Z,6.07
2023-04-19T23:43:54.549Z,6.12
2023-04-19T23:46:21.306Z,6.21
2023-04-19T23:48:47.624Z,6.03
2023-04-19T23:51:13.987Z,6.23
2023-04-19T23:53:40.315Z,6.04
2023-04-19T23:56:06.934Z,6.10
2023-04-19T23:58:33.303Z,6.00
